Mountain Lake, Minnesota
Current Conditions -  °F | °C
As of 8:34 PM on Friday 28 Nov 2014 (Local Time) from KMWM Reporting Station
Clear Clear  
Wind Chill: -12°   Ceiling: Unl
Heat Index: -7°   Visibility: 7mi
Dew Point: -7°   Wind: 7mph
Humidity: 100%   Direction: 110°ESE
Pressure: 29.68"   Gusts: NA
Location:  43.94°N, 94.93°W
Report Text: KMWM 290234Z AUTO 11006KT 7SM CLR M07/M07 A2968 RMK AO2
Loading
Personal Weather Stations






























Interactive Weather Map New forecast layout! Learn more

10-Day Weather Forecast

Advertisements
Track Severe Weather on mobile